sensor_id;sensor_type;location;lat;lon;timestamp;P1;durP1;ratioP1;P2;durP2;ratioP2
9310;SDS011;4694;52.464;13.480;2024-03-25T00:01:34;4.78;;;3.33;;
9310;SDS011;4694;52.464;13.480;2024-03-25T00:04:02;3.28;;;2.90;;
9310;SDS011;4694;52.464;13.480;2024-03-25T00:06:28;2.92;;;2.40;;
9310;SDS011;4694;52.464;13.480;2024-03-25T00:08:58;2.92;;;2.55;;
9310;SDS011;4694;52.464;13.480;2024-03-25T00:11:24;3.95;;;2.92;;
9310;SDS011;4694;52.464;13.480;2024-03-25T00:13:50;4.68;;;3.08;;
9310;SDS011;4694;52.464;13.480;2024-03-25T00:16:16;4.15;;;3.05;;
9310;SDS011;4694;52.464;13.480;2024-03-25T00:18:42;4.20;;;2.70;;
9310;SDS011;4694;52.464;13.480;2024-03-25T00:21:10;3.67;;;2.70;;
9310;SDS011;4694;52.464;13.480;2024-03-25T00:23:36;3.72;;;2.97;;
9310;SDS011;4694;52.464;13.480;2024-03-25T00:26:02;5.55;;;3.15;;
9310;SDS011;4694;52.464;13.480;2024-03-25T00:28:29;5.45;;;3.45;;
9310;SDS011;4694;52.464;13.480;2024-03-25T00:30:54;4.72;;;3.25;;
9310;SDS011;4694;52.464;13.480;2024-03-25T00:33:21;6.82;;;4.18;;
9310;SDS011;4694;52.464;13.480;2024-03-25T00:35:47;5.90;;;4.60;;
9310;SDS011;4694;52.464;13.480;2024-03-25T00:38:16;4.72;;;3.47;;
9310;SDS011;4694;52.464;13.480;2024-03-25T00:40:43;8.55;;;4.60;;
9310;SDS011;4694;52.464;13.480;2024-03-25T00:43:09;6.00;;;4.88;;
9310;SDS011;4694;52.464;13.480;2024-03-25T00:45:35;8.15;;;5.03;;
9310;SDS011;4694;52.464;13.480;2024-03-25T00:48:02;9.70;;;5.03;;
9310;SDS011;4694;52.464;13.480;2024-03-25T00:50:28;10.32;;;4.82;;
9310;SDS011;4694;52.464;13.480;2024-03-25T00:52:55;8.90;;;5.10;;
9310;SDS011;4694;52.464;13.480;2024-03-25T00:55:23;7.40;;;5.03;;
9310;SDS011;4694;52.464;13.480;2024-03-25T00:57:49;8.38;;;5.28;;
9310;SDS011;4694;52.464;13.480;2024-03-25T01:00:15;4.72;;;3.92;;
9310;SDS011;4694;52.464;13.480;2024-03-25T01:02:42;10.93;;;5.55;;
9310;SDS011;4694;52.464;13.480;2024-03-25T01:05:09;8.05;;;5.72;;
9310;SDS011;4694;52.464;13.480;2024-03-25T01:07:36;7.40;;;4.82;;
9310;SDS011;4694;52.464;13.480;2024-03-25T01:10:02;8.68;;;4.38;;
9310;SDS011;4694;52.464;13.480;2024-03-25T01:12:30;10.00;;;4.07;;
9310;SDS011;4694;52.464;13.480;2024-03-25T01:14:56;6.20;;;3.85;;
9310;SDS011;4694;52.464;13.480;2024-03-25T01:17:22;9.65;;;4.32;;
9310;SDS011;4694;52.464;13.480;2024-03-25T01:19:48;7.25;;;4.32;;
9310;SDS011;4694;52.464;13.480;2024-03-25T01:22:15;7.95;;;4.63;;
9310;SDS011;4694;52.464;13.480;2024-03-25T01:24:41;10.32;;;3.70;;
9310;SDS011;4694;52.464;13.480;2024-03-25T01:27:07;7.53;;;3.85;;
9310;SDS011;4694;52.464;13.480;2024-03-25T01:29:34;6.63;;;4.72;;
9310;SDS011;4694;52.464;13.480;2024-03-25T01:32:01;8.27;;;4.18;;
9310;SDS011;4694;52.464;13.480;2024-03-25T01:34:27;8.32;;;4.20;;
9310;SDS011;4694;52.464;13.480;2024-03-25T01:36:54;8.05;;;4.78;;
9310;SDS011;4694;52.464;13.480;2024-03-25T01:39:20;8.73;;;4.00;;
9310;SDS011;4694;52.464;13.480;2024-03-25T01:41:46;13.63;;;4.40;;
9310;SDS011;4694;52.464;13.480;2024-03-25T01:44:12;6.28;;;4.43;;
9310;SDS011;4694;52.464;13.480;2024-03-25T01:46:40;7.53;;;3.95;;
9310;SDS011;4694;52.464;13.480;2024-03-25T01:49:07;8.88;;;4.63;;
9310;SDS011;4694;52.464;13.480;2024-03-25T01:51:34;5.47;;;3.70;;
9310;SDS011;4694;52.464;13.480;2024-03-25T01:54:01;6.55;;;4.30;;
9310;SDS011;4694;52.464;13.480;2024-03-25T01:56:29;5.07;;;2.85;;
9310;SDS011;4694;52.464;13.480;2024-03-25T01:58:56;2.90;;;1.77;;
9310;SDS011;4694;52.464;13.480;2024-03-25T02:01:23;3.95;;;1.70;;
9310;SDS011;4694;52.464;13.480;2024-03-25T02:03:51;2.10;;;1.13;;
9310;SDS011;4694;52.464;13.480;2024-03-25T02:06:18;2.03;;;1.20;;
9310;SDS011;4694;52.464;13.480;2024-03-25T02:08:47;4.85;;;1.35;;
9310;SDS011;4694;52.464;13.480;2024-03-25T02:11:14;1.75;;;0.90;;
9310;SDS011;4694;52.464;13.480;2024-03-25T02:13:41;2.15;;;1.13;;
9310;SDS011;4694;52.464;13.480;2024-03-25T02:16:07;1.85;;;0.70;;
9310;SDS011;4694;52.464;13.480;2024-03-25T02:18:33;2.10;;;1.15;;
9310;SDS011;4694;52.464;13.480;2024-03-25T02:21:00;1.05;;;0.70;;
9310;SDS011;4694;52.464;13.480;2024-03-25T02:23:27;1.55;;;0.85;;
9310;SDS011;4694;52.464;13.480;2024-03-25T02:25:54;2.97;;;1.08;;
9310;SDS011;4694;52.464;13.480;2024-03-25T02:28:21;3.72;;;1.67;;
9310;SDS011;4694;52.464;13.480;2024-03-25T02:30:47;1.67;;;0.80;;
9310;SDS011;4694;52.464;13.480;2024-03-25T02:33:13;1.42;;;0.80;;
9310;SDS011;4694;52.464;13.480;2024-03-25T02:35:40;2.00;;;0.82;;
9310;SDS011;4694;52.464;13.480;2024-03-25T02:38:08;4.40;;;1.15;;
9310;SDS011;4694;52.464;13.480;2024-03-25T02:40:34;2.60;;;1.27;;
9310;SDS011;4694;52.464;13.480;2024-03-25T02:43:03;3.10;;;1.38;;
9310;SDS011;4694;52.464;13.480;2024-03-25T02:45:29;2.33;;;1.52;;
9310;SDS011;4694;52.464;13.480;2024-03-25T02:47:55;3.80;;;1.77;;
9310;SDS011;4694;52.464;13.480;2024-03-25T02:50:21;3.55;;;1.67;;
9310;SDS011;4694;52.464;13.480;2024-03-25T02:52:48;5.38;;;2.20;;
9310;SDS011;4694;52.464;13.480;2024-03-25T02:55:13;11.35;;;3.25;;
9310;SDS011;4694;52.464;13.480;2024-03-25T02:57:40;4.82;;;2.38;;
9310;SDS011;4694;52.464;13.480;2024-03-25T03:00:08;5.63;;;2.67;;
9310;SDS011;4694;52.464;13.480;2024-03-25T03:02:35;10.50;;;4.20;;
9310;SDS011;4694;52.464;13.480;2024-03-25T03:05:01;7.18;;;3.50;;
9310;SDS011;4694;52.464;13.480;2024-03-25T03:07:29;11.60;;;4.63;;
9310;SDS011;4694;52.464;13.480;2024-03-25T03:09:54;4.13;;;1.63;;
9310;SDS011;4694;52.464;13.480;2024-03-25T03:12:21;2.60;;;1.30;;
9310;SDS011;4694;52.464;13.480;2024-03-25T03:14:47;3.03;;;1.48;;
9310;SDS011;4694;52.464;13.480;2024-03-25T03:17:15;2.00;;;1.15;;
9310;SDS011;4694;52.464;13.480;2024-03-25T03:19:40;3.83;;;1.48;;
9310;SDS011;4694;52.464;13.480;2024-03-25T03:22:07;3.40;;;1.80;;
9310;SDS011;4694;52.464;13.480;2024-03-25T03:24:32;3.85;;;1.98;;
9310;SDS011;4694;52.464;13.480;2024-03-25T03:26:59;2.88;;;1.90;;
9310;SDS011;4694;52.464;13.480;2024-03-25T03:29:26;6.25;;;2.10;;
9310;SDS011;4694;52.464;13.480;2024-03-25T03:31:52;4.93;;;2.90;;
9310;SDS011;4694;52.464;13.480;2024-03-25T03:34:19;5.38;;;2.50;;
9310;SDS011;4694;52.464;13.480;2024-03-25T03:36:46;6.95;;;2.72;;
9310;SDS011;4694;52.464;13.480;2024-03-25T03:39:12;6.78;;;1.92;;
9310;SDS011;4694;52.464;13.480;2024-03-25T03:41:38;3.92;;;2.08;;
9310;SDS011;4694;52.464;13.480;2024-03-25T03:44:04;4.75;;;2.35;;
9310;SDS011;4694;52.464;13.480;2024-03-25T03:46:31;5.45;;;2.63;;
9310;SDS011;4694;52.464;13.480;2024-03-25T03:48:56;2.50;;;1.63;;
9310;SDS011;4694;52.464;13.480;2024-03-25T03:51:24;6.00;;;2.13;;
9310;SDS011;4694;52.464;13.480;2024-03-25T03:53:50;2.70;;;1.85;;
9310;SDS011;4694;52.464;13.480;2024-03-25T03:56:17;4.75;;;1.95;;
9310;SDS011;4694;52.464;13.480;2024-03-25T03:58:42;2.53;;;1.35;;
9310;SDS011;4694;52.464;13.480;2024-03-25T04:01:15;4.05;;;1.90;;
9310;SDS011;4694;52.464;13.480;2024-03-25T04:03:41;3.80;;;1.95;;
9310;SDS011;4694;52.464;13.480;2024-03-25T04:06:08;3.65;;;2.25;;
9310;SDS011;4694;52.464;13.480;2024-03-25T04:08:36;5.57;;;1.77;;
9310;SDS011;4694;52.464;13.480;2024-03-25T04:11:03;2.72;;;1.50;;
9310;SDS011;4694;52.464;13.480;2024-03-25T04:13:31;4.85;;;1.70;;
9310;SDS011;4694;52.464;13.480;2024-03-25T04:16:00;4.65;;;2.33;;
9310;SDS011;4694;52.464;13.480;2024-03-25T04:18:27;5.38;;;1.55;;
9310;SDS011;4694;52.464;13.480;2024-03-25T04:20:55;3.70;;;1.40;;
9310;SDS011;4694;52.464;13.480;2024-03-25T04:23:20;2.35;;;1.10;;
9310;SDS011;4694;52.464;13.480;2024-03-25T04:25:49;2.58;;;1.48;;
9310;SDS011;4694;52.464;13.480;2024-03-25T04:28:15;4.00;;;1.40;;
9310;SDS011;4694;52.464;13.480;2024-03-25T04:30:50;3.33;;;1.80;;
9310;SDS011;4694;52.464;13.480;2024-03-25T04:33:16;3.10;;;1.33;;
9310;SDS011;4694;52.464;13.480;2024-03-25T04:35:43;3.55;;;2.85;;
9310;SDS011;4694;52.464;13.480;2024-03-25T04:38:10;2.78;;;1.40;;
9310;SDS011;4694;52.464;13.480;2024-03-25T04:40:35;4.10;;;1.20;;
9310;SDS011;4694;52.464;13.480;2024-03-25T04:43:03;3.78;;;1.90;;
9310;SDS011;4694;52.464;13.480;2024-03-25T04:45:29;3.38;;;1.60;;
9310;SDS011;4694;52.464;13.480;2024-03-25T04:47:54;6.40;;;1.52;;
9310;SDS011;4694;52.464;13.480;2024-03-25T04:50:20;5.95;;;1.85;;
9310;SDS011;4694;52.464;13.480;2024-03-25T04:52:46;5.05;;;1.27;;
9310;SDS011;4694;52.464;13.480;2024-03-25T04:55:12;3.30;;;1.70;;
9310;SDS011;4694;52.464;13.480;2024-03-25T04:57:38;3.40;;;1.48;;
9310;SDS011;4694;52.464;13.480;2024-03-25T05:00:05;5.18;;;2.08;;
9310;SDS011;4694;52.464;13.480;2024-03-25T05:02:32;3.67;;;2.30;;
9310;SDS011;4694;52.464;13.480;2024-03-25T05:04:58;2.63;;;1.67;;
9310;SDS011;4694;52.464;13.480;2024-03-25T05:07:23;8.05;;;2.40;;
9310;SDS011;4694;52.464;13.480;2024-03-25T05:09:49;6.07;;;2.25;;
9310;SDS011;4694;52.464;13.480;2024-03-25T05:12:15;7.47;;;4.25;;
9310;SDS011;4694;52.464;13.480;2024-03-25T05:14:41;6.00;;;3.38;;
9310;SDS011;4694;52.464;13.480;2024-03-25T05:17:08;6.32;;;2.78;;
9310;SDS011;4694;52.464;13.480;2024-03-25T05:19:33;4.68;;;2.35;;
9310;SDS011;4694;52.464;13.480;2024-03-25T05:22:01;4.88;;;2.92;;
9310;SDS011;4694;52.464;13.480;2024-03-25T05:24:26;3.60;;;2.42;;
9310;SDS011;4694;52.464;13.480;2024-03-25T05:26:52;8.48;;;2.63;;
9310;SDS011;4694;52.464;13.480;2024-03-25T05:29:18;4.22;;;1.75;;
9310;SDS011;4694;52.464;13.480;2024-03-25T05:31:55;8.10;;;2.05;;
9310;SDS011;4694;52.464;13.480;2024-03-25T05:34:24;6.68;;;2.33;;
9310;SDS011;4694;52.464;13.480;2024-03-25T05:36:50;8.40;;;4.22;;
9310;SDS011;4694;52.464;13.480;2024-03-25T05:39:16;3.45;;;1.70;;
9310;SDS011;4694;52.464;13.480;2024-03-25T05:41:42;9.73;;;3.47;;
9310;SDS011;4694;52.464;13.480;2024-03-25T05:44:08;3.10;;;1.92;;
9310;SDS011;4694;52.464;13.480;2024-03-25T05:46:33;4.18;;;2.08;;
9310;SDS011;4694;52.464;13.480;2024-03-25T05:49:01;4.55;;;1.95;;
9310;SDS011;4694;52.464;13.480;2024-03-25T05:51:28;3.50;;;1.77;;
9310;SDS011;4694;52.464;13.480;2024-03-25T05:53:54;11.30;;;2.72;;
9310;SDS011;4694;52.464;13.480;2024-03-25T05:56:20;4.63;;;1.73;;
9310;SDS011;4694;52.464;13.480;2024-03-25T05:58:46;4.80;;;2.55;;
9310;SDS011;4694;52.464;13.480;2024-03-25T06:01:12;4.00;;;2.35;;
9310;SDS011;4694;52.464;13.480;2024-03-25T06:03:38;5.82;;;3.00;;
9310;SDS011;4694;52.464;13.480;2024-03-25T06:06:03;8.95;;;5.63;;
9310;SDS011;4694;52.464;13.480;2024-03-25T06:08:31;8.55;;;3.42;;
9310;SDS011;4694;52.464;13.480;2024-03-25T06:11:00;7.75;;;2.75;;
9310;SDS011;4694;52.464;13.480;2024-03-25T06:13:26;7.50;;;3.10;;
9310;SDS011;4694;52.464;13.480;2024-03-25T06:15:52;16.27;;;4.38;;
9310;SDS011;4694;52.464;13.480;2024-03-25T06:18:18;3.97;;;2.42;;
9310;SDS011;4694;52.464;13.480;2024-03-25T06:20:44;8.65;;;4.18;;
9310;SDS011;4694;52.464;13.480;2024-03-25T06:23:09;8.70;;;3.50;;
9310;SDS011;4694;52.464;13.480;2024-03-25T06:25:36;9.75;;;2.42;;
9310;SDS011;4694;52.464;13.480;2024-03-25T06:28:02;11.35;;;3.72;;
9310;SDS011;4694;52.464;13.480;2024-03-25T06:30:29;8.10;;;2.88;;
9310;SDS011;4694;52.464;13.480;2024-03-25T06:33:18;5.30;;;2.75;;
9310;SDS011;4694;52.464;13.480;2024-03-25T06:36:02;8.63;;;3.38;;
9310;SDS011;4694;52.464;13.480;2024-03-25T06:38:29;13.13;;;4.57;;
9310;SDS011;4694;52.464;13.480;2024-03-25T06:40:56;7.45;;;3.65;;
9310;SDS011;4694;52.464;13.480;2024-03-25T06:43:21;5.95;;;2.88;;
9310;SDS011;4694;52.464;13.480;2024-03-25T06:45:47;3.97;;;2.80;;
9310;SDS011;4694;52.464;13.480;2024-03-25T06:48:13;5.65;;;2.55;;
9310;SDS011;4694;52.464;13.480;2024-03-25T06:50:39;8.68;;;2.80;;
9310;SDS011;4694;52.464;13.480;2024-03-25T06:53:04;5.32;;;2.20;;
9310;SDS011;4694;52.464;13.480;2024-03-25T06:55:30;8.00;;;2.72;;
9310;SDS011;4694;52.464;13.480;2024-03-25T06:57:57;7.00;;;2.92;;
9310;SDS011;4694;52.464;13.480;2024-03-25T07:00:23;10.02;;;3.00;;
9310;SDS011;4694;52.464;13.480;2024-03-25T07:02:49;4.30;;;2.95;;
9310;SDS011;4694;52.464;13.480;2024-03-25T07:05:15;6.47;;;2.55;;
9310;SDS011;4694;52.464;13.480;2024-03-25T07:07:41;9.82;;;3.80;;
9310;SDS011;4694;52.464;13.480;2024-03-25T07:10:07;8.68;;;2.47;;
9310;SDS011;4694;52.464;13.480;2024-03-25T07:12:33;9.43;;;3.53;;
9310;SDS011;4694;52.464;13.480;2024-03-25T07:15:00;11.40;;;4.82;;
9310;SDS011;4694;52.464;13.480;2024-03-25T07:17:26;11.18;;;4.32;;
9310;SDS011;4694;52.464;13.480;2024-03-25T07:19:51;5.85;;;2.05;;
9310;SDS011;4694;52.464;13.480;2024-03-25T07:22:17;8.05;;;3.25;;
9310;SDS011;4694;52.464;13.480;2024-03-25T07:24:44;10.35;;;3.20;;
9310;SDS011;4694;52.464;13.480;2024-03-25T07:27:10;8.40;;;2.15;;
9310;SDS011;4694;52.464;13.480;2024-03-25T07:29:36;6.78;;;3.25;;
9310;SDS011;4694;52.464;13.480;2024-03-25T07:32:04;4.93;;;2.25;;
9310;SDS011;4694;52.464;13.480;2024-03-25T07:34:30;7.20;;;2.83;;
9310;SDS011;4694;52.464;13.480;2024-03-25T07:36:56;9.90;;;4.05;;
9310;SDS011;4694;52.464;13.480;2024-03-25T07:39:21;5.22;;;3.13;;
9310;SDS011;4694;52.464;13.480;2024-03-25T07:41:47;3.90;;;2.28;;
9310;SDS011;4694;52.464;13.480;2024-03-25T07:44:13;8.13;;;2.03;;
9310;SDS011;4694;52.464;13.480;2024-03-25T07:46:39;5.38;;;2.97;;
9310;SDS011;4694;52.464;13.480;2024-03-25T07:49:06;6.40;;;3.03;;
9310;SDS011;4694;52.464;13.480;2024-03-25T07:51:32;6.70;;;2.55;;
9310;SDS011;4694;52.464;13.480;2024-03-25T07:53:57;5.82;;;2.65;;
9310;SDS011;4694;52.464;13.480;2024-03-25T07:56:23;5.35;;;2.22;;
9310;SDS011;4694;52.464;13.480;2024-03-25T07:58:49;7.90;;;1.77;;
9310;SDS011;4694;52.464;13.480;2024-03-25T08:01:15;3.75;;;2.47;;
9310;SDS011;4694;52.464;13.480;2024-03-25T08:03:40;5.15;;;1.58;;
9310;SDS011;4694;52.464;13.480;2024-03-25T08:06:07;4.03;;;1.80;;
9310;SDS011;4694;52.464;13.480;2024-03-25T08:08:33;3.90;;;1.88;;
9310;SDS011;4694;52.464;13.480;2024-03-25T08:10:59;5.63;;;2.72;;
9310;SDS011;4694;52.464;13.480;2024-03-25T08:13:26;4.38;;;2.55;;
9310;SDS011;4694;52.464;13.480;2024-03-25T08:15:52;6.38;;;3.28;;
9310;SDS011;4694;52.464;13.480;2024-03-25T08:18:17;7.35;;;2.22;;
9310;SDS011;4694;52.464;13.480;2024-03-25T08:20:43;5.43;;;3.20;;
9310;SDS011;4694;52.464;13.480;2024-03-25T08:23:10;4.05;;;2.85;;
9310;SDS011;4694;52.464;13.480;2024-03-25T08:25:37;4.07;;;2.38;;
9310;SDS011;4694;52.464;13.480;2024-03-25T08:28:03;5.22;;;3.00;;
9310;SDS011;4694;52.464;13.480;2024-03-25T08:30:29;9.85;;;3.42;;
9310;SDS011;4694;52.464;13.480;2024-03-25T08:32:55;8.27;;;3.35;;
9310;SDS011;4694;52.464;13.480;2024-03-25T08:35:21;6.85;;;3.58;;
9310;SDS011;4694;52.464;13.480;2024-03-25T08:37:47;8.27;;;3.80;;
9310;SDS011;4694;52.464;13.480;2024-03-25T08:40:14;10.23;;;3.60;;
9310;SDS011;4694;52.464;13.480;2024-03-25T08:42:40;11.02;;;4.03;;
9310;SDS011;4694;52.464;13.480;2024-03-25T08:45:06;7.78;;;3.95;;
9310;SDS011;4694;52.464;13.480;2024-03-25T08:47:32;5.57;;;3.22;;
9310;SDS011;4694;52.464;13.480;2024-03-25T08:49:58;8.32;;;3.88;;
9310;SDS011;4694;52.464;13.480;2024-03-25T08:52:24;8.40;;;3.88;;
9310;SDS011;4694;52.464;13.480;2024-03-25T08:54:49;9.90;;;4.22;;
9310;SDS011;4694;52.464;13.480;2024-03-25T08:57:17;5.43;;;3.20;;
9310;SDS011;4694;52.464;13.480;2024-03-25T08:59:42;5.15;;;2.78;;
9310;SDS011;4694;52.464;13.480;2024-03-25T09:02:08;6.97;;;2.55;;
9310;SDS011;4694;52.464;13.480;2024-03-25T09:04:34;9.25;;;4.35;;
9310;SDS011;4694;52.464;13.480;2024-03-25T09:07:00;5.78;;;3.13;;
9310;SDS011;4694;52.464;13.480;2024-03-25T09:09:26;6.45;;;3.42;;
9310;SDS011;4694;52.464;13.480;2024-03-25T09:12:10;8.93;;;3.55;;
9310;SDS011;4694;52.464;13.480;2024-03-25T09:14:37;8.38;;;3.70;;
9310;SDS011;4694;52.464;13.480;2024-03-25T09:17:03;5.03;;;3.13;;
9310;SDS011;4694;52.464;13.480;2024-03-25T09:19:29;7.13;;;3.00;;
9310;SDS011;4694;52.464;13.480;2024-03-25T09:21:55;6.88;;;3.55;;
9310;SDS011;4694;52.464;13.480;2024-03-25T09:24:21;4.35;;;2.97;;
9310;SDS011;4694;52.464;13.480;2024-03-25T09:26:49;5.70;;;3.45;;
9310;SDS011;4694;52.464;13.480;2024-03-25T09:29:14;8.52;;;3.03;;
9310;SDS011;4694;52.464;13.480;2024-03-25T09:31:42;5.78;;;2.53;;
9310;SDS011;4694;52.464;13.480;2024-03-25T09:34:09;4.85;;;2.90;;
9310;SDS011;4694;52.464;13.480;2024-03-25T09:36:34;6.63;;;3.17;;
9310;SDS011;4694;52.464;13.480;2024-03-25T09:39:00;6.18;;;2.78;;
9310;SDS011;4694;52.464;13.480;2024-03-25T09:41:26;5.30;;;2.92;;
9310;SDS011;4694;52.464;13.480;2024-03-25T09:43:55;5.55;;;2.80;;
9310;SDS011;4694;52.464;13.480;2024-03-25T09:46:20;7.63;;;4.07;;
9310;SDS011;4694;52.464;13.480;2024-03-25T09:48:49;4.80;;;2.58;;
9310;SDS011;4694;52.464;13.480;2024-03-25T09:51:17;8.38;;;3.80;;
9310;SDS011;4694;52.464;13.480;2024-03-25T09:53:43;4.10;;;2.15;;
9310;SDS011;4694;52.464;13.480;2024-03-25T09:56:09;5.43;;;2.13;;
9310;SDS011;4694;52.464;13.480;2024-03-25T09:58:35;4.45;;;2.38;;
9310;SDS011;4694;52.464;13.480;2024-03-25T10:01:01;7.65;;;3.05;;
9310;SDS011;4694;52.464;13.480;2024-03-25T10:03:27;6.35;;;2.53;;
9310;SDS011;4694;52.464;13.480;2024-03-25T10:05:54;4.80;;;2.95;;
9310;SDS011;4694;52.464;13.480;2024-03-25T10:08:20;7.90;;;3.15;;
9310;SDS011;4694;52.464;13.480;2024-03-25T10:10:47;5.53;;;3.25;;
9310;SDS011;4694;52.464;13.480;2024-03-25T10:13:13;5.43;;;3.22;;
9310;SDS011;4694;52.464;13.480;2024-03-25T10:15:41;4.55;;;2.83;;
9310;SDS011;4694;52.464;13.480;2024-03-25T10:18:07;4.13;;;2.40;;
9310;SDS011;4694;52.464;13.480;2024-03-25T10:20:34;8.73;;;3.83;;
9310;SDS011;4694;52.464;13.480;2024-03-25T10:23:01;3.60;;;2.17;;
9310;SDS011;4694;52.464;13.480;2024-03-25T10:25:28;6.40;;;2.00;;
9310;SDS011;4694;52.464;13.480;2024-03-25T10:27:55;4.78;;;2.20;;
9310;SDS011;4694;52.464;13.480;2024-03-25T10:30:21;4.20;;;2.10;;
9310;SDS011;4694;52.464;13.480;2024-03-25T10:32:57;4.00;;;1.80;;
9310;SDS011;4694;52.464;13.480;2024-03-25T10:35:23;10.20;;;2.58;;
9310;SDS011;4694;52.464;13.480;2024-03-25T10:37:51;8.25;;;2.22;;
9310;SDS011;4694;52.464;13.480;2024-03-25T10:40:21;3.10;;;1.65;;
9310;SDS011;4694;52.464;13.480;2024-03-25T10:42:50;4.22;;;2.05;;
9310;SDS011;4694;52.464;13.480;2024-03-25T10:45:16;3.60;;;2.72;;
9310;SDS011;4694;52.464;13.480;2024-03-25T10:47:42;4.93;;;1.73;;
9310;SDS011;4694;52.464;13.480;2024-03-25T10:50:09;2.50;;;1.10;;
9310;SDS011;4694;52.464;13.480;2024-03-25T10:52:41;7.43;;;3.08;;
9310;SDS011;4694;52.464;13.480;2024-03-25T10:55:07;4.80;;;1.67;;
9310;SDS011;4694;52.464;13.480;2024-03-25T10:57:34;5.90;;;1.85;;
9310;SDS011;4694;52.464;13.480;2024-03-25T11:00:02;3.00;;;1.15;;
9310;SDS011;4694;52.464;13.480;2024-03-25T11:02:28;3.38;;;1.55;;
9310;SDS011;4694;52.464;13.480;2024-03-25T11:04:55;3.13;;;1.13;;
9310;SDS011;4694;52.464;13.480;2024-03-25T11:07:28;4.55;;;1.52;;
9310;SDS011;4694;52.464;13.480;2024-03-25T11:10:02;2.42;;;1.33;;
9310;SDS011;4694;52.464;13.480;2024-03-25T11:12:37;3.88;;;1.23;;
9310;SDS011;4694;52.464;13.480;2024-03-25T11:15:05;3.53;;;1.25;;
9310;SDS011;4694;52.464;13.480;2024-03-25T11:17:32;3.72;;;1.65;;
9310;SDS011;4694;52.464;13.480;2024-03-25T11:20:08;4.22;;;1.60;;
9310;SDS011;4694;52.464;13.480;2024-03-25T11:22:46;2.30;;;1.45;;
9310;SDS011;4694;52.464;13.480;2024-03-25T11:25:13;4.07;;;1.40;;
9310;SDS011;4694;52.464;13.480;2024-03-25T11:27:42;4.40;;;2.15;;
9310;SDS011;4694;52.464;13.480;2024-03-25T11:30:09;7.27;;;1.67;;
9310;SDS011;4694;52.464;13.480;2024-03-25T11:34:16;2.35;;;1.45;;
9310;SDS011;4694;52.464;13.480;2024-03-25T11:36:43;2.60;;;0.95;;
9310;SDS011;4694;52.464;13.480;2024-03-25T11:39:09;4.90;;;1.30;;
9310;SDS011;4694;52.464;13.480;2024-03-25T11:41:35;2.05;;;1.02;;
9310;SDS011;4694;52.464;13.480;2024-03-25T11:44:05;3.90;;;1.13;;
9310;SDS011;4694;52.464;13.480;2024-03-25T11:46:31;1.83;;;0.85;;
9310;SDS011;4694;52.464;13.480;2024-03-25T11:48:58;4.45;;;1.00;;
9310;SDS011;4694;52.464;13.480;2024-03-25T11:51:25;3.50;;;1.63;;
9310;SDS011;4694;52.464;13.480;2024-03-25T11:53:51;2.33;;;1.38;;
9310;SDS011;4694;52.464;13.480;2024-03-25T11:56:18;4.13;;;0.85;;
9310;SDS011;4694;52.464;13.480;2024-03-25T11:58:44;5.05;;;1.58;;
9310;SDS011;4694;52.464;13.480;2024-03-25T12:01:10;2.20;;;0.90;;
9310;SDS011;4694;52.464;13.480;2024-03-25T12:03:37;4.50;;;1.25;;
9310;SDS011;4694;52.464;13.480;2024-03-25T12:06:04;1.08;;;0.70;;
9310;SDS011;4694;52.464;13.480;2024-03-25T12:08:32;3.03;;;1.25;;
9310;SDS011;4694;52.464;13.480;2024-03-25T12:10:59;1.55;;;0.80;;
9310;SDS011;4694;52.464;13.480;2024-03-25T12:13:43;1.88;;;1.60;;
9310;SDS011;4694;52.464;13.480;2024-03-25T12:16:10;2.55;;;0.70;;
9310;SDS011;4694;52.464;13.480;2024-03-25T12:18:36;4.20;;;0.98;;
9310;SDS011;4694;52.464;13.480;2024-03-25T12:21:04;2.15;;;1.00;;
9310;SDS011;4694;52.464;13.480;2024-03-25T12:23:31;2.00;;;0.40;;
9310;SDS011;4694;52.464;13.480;2024-03-25T12:25:59;3.38;;;0.82;;
9310;SDS011;4694;52.464;13.480;2024-03-25T12:28:25;0.90;;;0.55;;
9310;SDS011;4694;52.464;13.480;2024-03-25T12:30:52;1.55;;;0.40;;
9310;SDS011;4694;52.464;13.480;2024-03-25T12:33:18;5.60;;;1.10;;
9310;SDS011;4694;52.464;13.480;2024-03-25T12:35:45;0.82;;;0.50;;
9310;SDS011;4694;52.464;13.480;2024-03-25T12:38:21;2.03;;;0.80;;
9310;SDS011;4694;52.464;13.480;2024-03-25T12:40:48;3.22;;;1.00;;
9310;SDS011;4694;52.464;13.480;2024-03-25T12:43:15;2.92;;;0.82;;
9310;SDS011;4694;52.464;13.480;2024-03-25T12:45:41;2.80;;;0.98;;
9310;SDS011;4694;52.464;13.480;2024-03-25T12:48:07;2.10;;;0.60;;
9310;SDS011;4694;52.464;13.480;2024-03-25T12:50:34;1.83;;;0.60;;
9310;SDS011;4694;52.464;13.480;2024-03-25T12:53:00;2.95;;;0.93;;
9310;SDS011;4694;52.464;13.480;2024-03-25T12:55:26;1.75;;;0.70;;
9310;SDS011;4694;52.464;13.480;2024-03-25T12:57:54;1.30;;;0.82;;
9310;SDS011;4694;52.464;13.480;2024-03-25T13:00:20;1.48;;;0.82;;
9310;SDS011;4694;52.464;13.480;2024-03-25T13:02:47;1.40;;;0.70;;
9310;SDS011;4694;52.464;13.480;2024-03-25T13:05:14;1.65;;;0.50;;
9310;SDS011;4694;52.464;13.480;2024-03-25T13:07:40;2.08;;;0.80;;
9310;SDS011;4694;52.464;13.480;2024-03-25T13:10:07;1.90;;;0.52;;
9310;SDS011;4694;52.464;13.480;2024-03-25T13:12:34;1.27;;;0.38;;
9310;SDS011;4694;52.464;13.480;2024-03-25T13:15:01;1.83;;;0.80;;
9310;SDS011;4694;52.464;13.480;2024-03-25T13:17:27;0.70;;;0.60;;
9310;SDS011;4694;52.464;13.480;2024-03-25T13:19:54;3.08;;;0.68;;
9310;SDS011;4694;52.464;13.480;2024-03-25T13:22:20;10.38;;;4.60;;
9310;SDS011;4694;52.464;13.480;2024-03-25T13:24:46;2.67;;;1.00;;
9310;SDS011;4694;52.464;13.480;2024-03-25T13:27:12;2.53;;;0.57;;
9310;SDS011;4694;52.464;13.480;2024-03-25T13:29:39;2.70;;;0.57;;
9310;SDS011;4694;52.464;13.480;2024-03-25T13:32:06;1.25;;;0.43;;
9310;SDS011;4694;52.464;13.480;2024-03-25T13:34:32;3.65;;;0.93;;
9310;SDS011;4694;52.464;13.480;2024-03-25T13:36:59;0.68;;;0.60;;
9310;SDS011;4694;52.464;13.480;2024-03-25T13:39:25;1.38;;;0.75;;
9310;SDS011;4694;52.464;13.480;2024-03-25T13:41:51;1.23;;;0.60;;
9310;SDS011;4694;52.464;13.480;2024-03-25T13:44:17;1.60;;;0.93;;
9310;SDS011;4694;52.464;13.480;2024-03-25T13:46:43;1.25;;;0.57;;
9310;SDS011;4694;52.464;13.480;2024-03-25T13:49:11;1.25;;;0.60;;
9310;SDS011;4694;52.464;13.480;2024-03-25T13:51:37;2.90;;;0.70;;
9310;SDS011;4694;52.464;13.480;2024-03-25T13:54:03;0.82;;;0.45;;
9310;SDS011;4694;52.464;13.480;2024-03-25T13:56:29;1.67;;;0.45;;
9310;SDS011;4694;52.464;13.480;2024-03-25T13:58:55;1.13;;;0.60;;
9310;SDS011;4694;52.464;13.480;2024-03-25T14:01:22;0.95;;;0.77;;
9310;SDS011;4694;52.464;13.480;2024-03-25T14:03:49;1.95;;;0.68;;
9310;SDS011;4694;52.464;13.480;2024-03-25T14:06:17;0.88;;;0.70;;
9310;SDS011;4694;52.464;13.480;2024-03-25T14:08:44;1.77;;;0.75;;
9310;SDS011;4694;52.464;13.480;2024-03-25T14:11:10;0.60;;;0.40;;
9310;SDS011;4694;52.464;13.480;2024-03-25T14:13:36;7.28;;;0.50;;
9310;SDS011;4694;52.464;13.480;2024-03-25T14:16:03;3.30;;;1.65;;
9310;SDS011;4694;52.464;13.480;2024-03-25T14:18:29;1.00;;;0.50;;
9310;SDS011;4694;52.464;13.480;2024-03-25T14:20:55;0.93;;;0.45;;
9310;SDS011;4694;52.464;13.480;2024-03-25T14:23:23;2.90;;;0.60;;
9310;SDS011;4694;52.464;13.480;2024-03-25T14:25:50;0.80;;;0.43;;
9310;SDS011;4694;52.464;13.480;2024-03-25T14:28:16;1.27;;;0.50;;
9310;SDS011;4694;52.464;13.480;2024-03-25T14:30:42;0.68;;;0.40;;
9310;SDS011;4694;52.464;13.480;2024-03-25T14:33:08;1.98;;;0.70;;
9310;SDS011;4694;52.464;13.480;2024-03-25T14:35:34;4.22;;;0.40;;
9310;SDS011;4694;52.464;13.480;2024-03-25T14:38:00;0.50;;;0.50;;
9310;SDS011;4694;52.464;13.480;2024-03-25T14:40:29;3.67;;;1.60;;
9310;SDS011;4694;52.464;13.480;2024-03-25T14:42:55;1.50;;;0.77;;
9310;SDS011;4694;52.464;13.480;2024-03-25T14:45:21;5.95;;;2.45;;
9310;SDS011;4694;52.464;13.480;2024-03-25T14:47:47;3.58;;;0.63;;
9310;SDS011;4694;52.464;13.480;2024-03-25T14:50:14;4.35;;;1.05;;
9310;SDS011;4694;52.464;13.480;2024-03-25T14:52:40;3.10;;;0.90;;
9310;SDS011;4694;52.464;13.480;2024-03-25T14:55:06;2.30;;;0.65;;
9310;SDS011;4694;52.464;13.480;2024-03-25T14:57:34;2.55;;;0.95;;
9310;SDS011;4694;52.464;13.480;2024-03-25T15:00:02;3.65;;;1.00;;